createdAt,value
2018-05-15T00:00:44.700Z,2.03
2018-05-15T00:03:12.545Z,1.60
2018-05-15T00:05:40.484Z,1.53
2018-05-15T00:08:09.088Z,1.70
2018-05-15T00:10:37.000Z,1.30
2018-05-15T00:13:04.918Z,1.40
2018-05-15T00:15:32.744Z,1.60
2018-05-15T00:18:00.597Z,1.33
2018-05-15T00:20:28.555Z,1.20
2018-05-15T00:22:56.416Z,1.60
2018-05-15T00:25:24.322Z,1.57
2018-05-15T00:27:52.303Z,1.37
2018-05-15T00:30:20.946Z,1.47
2018-05-15T00:32:48.819Z,1.60
2018-05-15T00:35:16.648Z,1.50
2018-05-15T00:37:44.581Z,1.33
2018-05-15T00:40:13.216Z,1.73
2018-05-15T00:42:41.168Z,1.60
2018-05-15T00:45:09.072Z,1.40
2018-05-15T00:47:37.000Z,1.50
2018-05-15T00:50:04.880Z,1.10
2018-05-15T00:52:32.718Z,1.27
2018-05-15T00:55:13.242Z,1.73
2018-05-15T00:57:41.129Z,1.20
2018-05-15T01:00:09.856Z,1.60
2018-05-15T01:02:37.809Z,1.80
2018-05-15T01:05:05.704Z,1.43
2018-05-15T01:07:33.556Z,2.30
2018-05-15T01:10:01.441Z,1.40
2018-05-15T01:12:29.293Z,1.30
2018-05-15T01:14:57.132Z,1.10
2018-05-15T01:17:24.956Z,1.27
2018-05-15T01:19:52.817Z,1.20
2018-05-15T01:22:20.745Z,1.30
2018-05-15T01:24:48.702Z,1.50
2018-05-15T01:27:16.577Z,1.60
2018-05-15T01:29:44.408Z,1.50
2018-05-15T01:32:12.345Z,1.37
2018-05-15T01:34:40.213Z,1.70
2018-05-15T01:37:08.137Z,1.50
2018-05-15T01:39:36.036Z,1.20
2018-05-15T01:42:03.902Z,1.97
2018-05-15T01:44:31.775Z,1.40
2018-05-15T01:46:59.607Z,1.33
2018-05-15T01:49:27.483Z,1.90
2018-05-15T01:51:56.343Z,1.27
2018-05-15T01:54:25.041Z,1.53
2018-05-15T01:56:53.645Z,1.93
2018-05-15T01:59:21.512Z,1.50
2018-05-15T02:01:49.412Z,1.30
2018-05-15T02:04:17.279Z,1.50
2018-05-15T02:06:45.174Z,1.40
2018-05-15T02:09:13.021Z,1.50
2018-05-15T02:11:40.964Z,1.60
2018-05-15T02:14:09.576Z,1.63
2018-05-15T02:16:37.502Z,2.03
2018-05-15T02:19:05.372Z,1.57
2018-05-15T02:21:33.239Z,1.37
2018-05-15T02:24:01.138Z,1.90
2018-05-15T02:26:29.043Z,1.70
2018-05-15T02:28:57.707Z,1.60
2018-05-15T02:31:25.554Z,1.83
2018-05-15T02:33:53.752Z,1.20
2018-05-15T02:36:21.684Z,1.73
2018-05-15T02:38:49.600Z,1.60
2018-05-15T02:41:18.272Z,1.20
2018-05-15T02:43:46.200Z,1.17
2018-05-15T02:46:14.104Z,1.40
2018-05-15T02:48:41.974Z,1.40
2018-05-15T02:51:09.889Z,1.67
2018-05-15T02:53:37.798Z,1.37
2018-05-15T02:56:05.672Z,1.20
2018-05-15T02:58:33.521Z,1.27
2018-05-15T03:01:01.398Z,1.33
2018-05-15T03:03:29.321Z,1.70
2018-05-15T03:05:57.202Z,1.90
2018-05-15T03:08:25.164Z,1.17
2018-05-15T03:10:53.109Z,1.63
2018-05-15T03:13:21.028Z,1.70
2018-05-15T03:15:48.860Z,2.00
2018-05-15T03:18:16.788Z,1.70
2018-05-15T03:20:45.369Z,1.67
2018-05-15T03:23:13.999Z,1.73
2018-05-15T03:25:41.936Z,2.00
2018-05-15T03:28:10.576Z,1.47
2018-05-15T03:30:38.497Z,2.17
2018-05-15T03:33:06.397Z,2.33
2018-05-15T03:35:35.105Z,2.30
2018-05-15T03:38:02.998Z,2.00
2018-05-15T03:40:31.625Z,1.80
2018-05-15T03:42:59.483Z,1.67
2018-05-15T03:45:27.426Z,1.57
2018-05-15T03:47:56.059Z,1.67
2018-05-15T03:50:23.993Z,1.90
2018-05-15T03:52:51.877Z,2.53
2018-05-15T03:55:19.736Z,2.17
2018-05-15T03:57:47.568Z,3.00
2018-05-15T04:00:27.960Z,2.07
2018-05-15T04:03:07.669Z,2.77
2018-05-15T04:05:48.088Z,2.00
2018-05-15T04:08:16.068Z,2.20
2018-05-15T04:10:44.015Z,3.07
2018-05-15T04:13:13.588Z,2.97
2018-05-15T04:15:42.204Z,2.33
2018-05-15T04:18:10.049Z,2.33
2018-05-15T04:20:37.987Z,3.53
2018-05-15T04:23:05.852Z,3.20
2018-05-15T04:25:33.760Z,2.17
2018-05-15T04:28:01.711Z,2.33
2018-05-15T04:30:29.756Z,2.30
2018-05-15T04:32:57.638Z,1.80
2018-05-15T04:35:26.321Z,1.73
2018-05-15T04:37:54.912Z,2.70
2018-05-15T04:40:23.605Z,1.87
2018-05-15T04:42:52.360Z,2.37
2018-05-15T04:45:20.708Z,2.53
2018-05-15T04:47:48.559Z,1.80
2018-05-15T04:50:16.412Z,1.93
2018-05-15T04:52:44.241Z,1.73
2018-05-15T04:55:12.085Z,1.37
2018-05-15T04:57:40.032Z,1.93
2018-05-15T05:00:07.975Z,1.70
2018-05-15T05:02:35.882Z,1.60
2018-05-15T05:05:03.850Z,1.20
2018-05-15T05:07:31.735Z,1.70
2018-05-15T05:09:59.664Z,2.07
2018-05-15T05:12:27.589Z,2.10
2018-05-15T05:14:55.488Z,1.57
2018-05-15T05:17:23.349Z,1.70
2018-05-15T05:19:51.270Z,1.53
2018-05-15T05:22:23.221Z,1.37
2018-05-15T05:24:51.218Z,1.60
2018-05-15T05:27:19.858Z,1.87
2018-05-15T05:29:47.747Z,1.70
2018-05-15T05:32:15.678Z,1.50
2018-05-15T05:34:43.513Z,1.27
2018-05-15T05:37:12.124Z,1.40
2018-05-15T05:39:40.049Z,1.63
2018-05-15T05:42:07.888Z,1.47
2018-05-15T05:44:35.717Z,1.67
2018-05-15T05:47:03.572Z,1.40
2018-05-15T05:49:32.208Z,2.33
2018-05-15T05:52:00.056Z,1.50
2018-05-15T05:54:27.923Z,1.40
2018-05-15T05:56:55.864Z,1.60
2018-05-15T05:59:24.480Z,1.70
2018-05-15T06:01:52.600Z,1.27
2018-05-15T06:04:21.225Z,1.53
2018-05-15T06:06:49.148Z,1.40
2018-05-15T06:09:17.041Z,1.30
2018-05-15T06:11:44.899Z,1.30
2018-05-15T06:14:13.515Z,1.40
2018-05-15T06:16:41.501Z,1.90
2018-05-15T06:19:09.363Z,1.63
2018-05-15T06:21:37.297Z,1.40
2018-05-15T06:24:05.517Z,1.43
2018-05-15T06:26:33.405Z,1.80
2018-05-15T06:29:01.234Z,1.37
2018-05-15T06:31:29.096Z,1.30
2018-05-15T06:33:57.060Z,1.30
2018-05-15T06:36:24.939Z,1.63
2018-05-15T06:38:52.835Z,1.50
2018-05-15T06:41:20.702Z,1.10
2018-05-15T06:43:48.585Z,1.40
2018-05-15T06:46:17.269Z,1.60
2018-05-15T06:48:45.124Z,1.80
2018-05-15T06:51:12.977Z,0.93
2018-05-15T06:53:40.851Z,1.60
2018-05-15T06:56:09.427Z,1.57
2018-05-15T06:58:37.297Z,1.47
2018-05-15T07:01:12.245Z,1.63
2018-05-15T07:03:53.366Z,1.47
2018-05-15T07:06:28.545Z,1.50
2018-05-15T07:09:08.209Z,1.77
2018-05-15T07:11:48.843Z,1.60
2018-05-15T07:14:29.709Z,2.03
2018-05-15T07:17:08.766Z,1.00
2018-05-15T07:19:42.301Z,1.47
2018-05-15T07:22:16.768Z,1.50
2018-05-15T07:24:57.437Z,1.23
2018-05-15T07:27:28.781Z,1.63
2018-05-15T07:30:03.026Z,1.47
2018-05-15T07:32:38.072Z,1.20
2018-05-15T07:35:10.825Z,1.40
2018-05-15T07:37:48.773Z,1.27
2018-05-15T07:40:24.215Z,1.23
2018-05-15T07:42:59.217Z,1.17
2018-05-15T07:45:32.980Z,0.90
2018-05-15T07:48:02.856Z,1.33
2018-05-15T07:50:31.991Z,0.90
2018-05-15T07:52:59.860Z,1.17
2018-05-15T07:55:27.695Z,1.13
2018-05-15T07:57:56.286Z,1.10
2018-05-15T08:00:24.232Z,0.87
2018-05-15T08:02:54.100Z,3.43
2018-05-15T08:05:22.593Z,1.00
2018-05-15T08:07:53.027Z,1.37
2018-05-15T08:10:21.040Z,1.10
2018-05-15T08:12:48.978Z,1.20
2018-05-15T08:15:17.602Z,1.30
2018-05-15T08:17:45.536Z,1.70
2018-05-15T08:20:14.209Z,1.63
2018-05-15T08:22:42.073Z,1.53
2018-05-15T08:25:09.932Z,2.00
2018-05-15T08:27:37.881Z,2.00
2018-05-15T08:30:06.608Z,1.90
2018-05-15T08:32:35.193Z,1.93
2018-05-15T08:35:03.943Z,2.97
2018-05-15T08:37:31.917Z,2.07
2018-05-15T08:39:59.776Z,2.30
2018-05-15T08:42:27.714Z,2.13
2018-05-15T08:44:55.656Z,1.87
2018-05-15T08:47:24.276Z,2.30
2018-05-15T08:49:52.129Z,1.87
2018-05-15T08:52:20.035Z,2.27
2018-05-15T08:54:48.700Z,1.80
2018-05-15T08:57:16.620Z,1.83
2018-05-15T08:59:45.287Z,2.40
2018-05-15T09:02:13.165Z,2.20
2018-05-15T09:04:41.122Z,2.30
2018-05-15T09:07:08.972Z,2.90
2018-05-15T09:09:36.800Z,2.37
2018-05-15T09:12:04.627Z,1.60
2018-05-15T09:14:32.540Z,3.07
2018-05-15T09:17:00.457Z,1.43
2018-05-15T09:19:28.295Z,2.03
2018-05-15T09:21:56.193Z,1.77
2018-05-15T09:24:24.046Z,1.50
2018-05-15T09:26:51.936Z,1.50
2018-05-15T09:29:20.616Z,1.60
2018-05-15T09:31:49.968Z,1.73
2018-05-15T09:34:17.812Z,1.53
2018-05-15T09:36:45.693Z,1.13
2018-05-15T09:39:13.536Z,1.67
2018-05-15T09:41:42.192Z,1.00
2018-05-15T09:44:10.065Z,1.67
2018-05-15T09:46:37.965Z,1.80
2018-05-15T09:49:05.865Z,1.10
2018-05-15T09:51:33.684Z,0.80
2018-05-15T09:54:02.289Z,0.90
2018-05-15T09:56:30.099Z,0.80
2018-05-15T09:58:57.921Z,0.87
2018-05-15T10:01:25.764Z,1.63
2018-05-15T10:03:54.360Z,1.00
2018-05-15T10:06:22.567Z,1.10
2018-05-15T10:08:50.524Z,0.87
2018-05-15T10:11:18.434Z,1.00
2018-05-15T10:13:46.366Z,1.30
2018-05-15T10:16:14.238Z,0.80
2018-05-15T10:18:42.115Z,0.80
2018-05-15T10:21:10.044Z,1.60
2018-05-15T10:23:37.978Z,0.80
2018-05-15T10:26:05.948Z,0.70
2018-05-15T10:28:33.811Z,0.70
2018-05-15T10:31:01.673Z,0.93
2018-05-15T10:33:29.621Z,1.63
2018-05-15T10:35:57.542Z,0.83
2018-05-15T10:38:25.400Z,0.73
2018-05-15T10:40:54.050Z,1.10
2018-05-15T10:43:21.905Z,1.00
2018-05-15T10:45:49.756Z,0.77
2018-05-15T10:48:17.661Z,1.10
2018-05-15T10:50:45.508Z,1.13
2018-05-15T10:53:13.501Z,0.97
2018-05-15T10:55:41.383Z,0.80
2018-05-15T10:58:10.035Z,0.63
2018-05-15T11:00:37.960Z,1.00
2018-05-15T11:03:05.825Z,0.90
2018-05-15T11:05:33.653Z,1.20
2018-05-15T11:08:01.609Z,1.80
2018-05-15T11:10:29.540Z,1.30
2018-05-15T11:12:57.408Z,1.30
2018-05-15T11:15:25.320Z,0.90
2018-05-15T11:17:53.232Z,1.17
2018-05-15T11:20:33.133Z,1.47
2018-05-15T11:23:12.712Z,1.00
2018-05-15T11:25:40.605Z,0.97
2018-05-15T11:28:08.598Z,1.40
2018-05-15T11:30:36.502Z,1.53
2018-05-15T11:33:05.148Z,1.70
2018-05-15T11:35:33.228Z,1.53
2018-05-15T11:38:01.113Z,1.60
2018-05-15T11:40:29.818Z,1.30
2018-05-15T11:42:57.670Z,1.50
2018-05-15T11:45:26.282Z,1.77
2018-05-15T11:47:54.523Z,1.53
2018-05-15T11:50:23.176Z,2.07
2018-05-15T11:52:51.501Z,1.77
2018-05-15T11:55:18.878Z,1.90
2018-05-15T11:57:46.843Z,1.67
2018-05-15T12:00:14.769Z,2.23
2018-05-15T12:02:42.617Z,2.00
2018-05-15T12:05:11.325Z,2.17
2018-05-15T12:07:39.262Z,1.60
2018-05-15T12:10:07.155Z,1.40
2018-05-15T12:12:35.011Z,1.60
2018-05-15T12:15:03.029Z,1.33
2018-05-15T12:17:31.613Z,1.50
2018-05-15T12:19:59.445Z,1.67
2018-05-15T12:22:27.309Z,1.67
2018-05-15T12:24:55.250Z,1.77
2018-05-15T12:27:23.169Z,1.83
2018-05-15T12:29:51.141Z,1.87
2018-05-15T12:32:19.042Z,1.60
2018-05-15T12:34:47.988Z,2.00
2018-05-15T12:37:16.617Z,2.20
2018-05-15T12:39:44.517Z,1.50
2018-05-15T12:42:12.705Z,1.33
2018-05-15T12:44:40.481Z,2.20
2018-05-15T12:47:09.197Z,1.37
2018-05-15T12:49:37.056Z,1.20
2018-05-15T12:52:04.924Z,1.63
2018-05-15T12:54:32.773Z,1.27
2018-05-15T12:57:01.470Z,1.13
2018-05-15T12:59:29.321Z,1.00
2018-05-15T13:01:58.016Z,1.23
2018-05-15T13:04:25.983Z,1.30
2018-05-15T13:06:53.839Z,0.80
2018-05-15T13:09:22.441Z,0.90
2018-05-15T13:11:50.379Z,0.93
2018-05-15T13:14:19.093Z,0.90
2018-05-15T13:16:47.025Z,1.20
2018-05-15T13:19:14.931Z,1.00
2018-05-15T13:21:42.772Z,1.00
2018-05-15T13:24:11.396Z,1.23
2018-05-15T13:26:39.279Z,1.30
2018-05-15T13:29:07.133Z,1.90
2018-05-15T13:31:35.007Z,1.37
2018-05-15T13:34:02.859Z,0.90
2018-05-15T13:36:30.792Z,1.40
2018-05-15T13:38:59.486Z,2.10
2018-05-15T13:41:28.192Z,1.50
2018-05-15T13:43:56.028Z,1.70
2018-05-15T13:46:24.632Z,1.57
2018-05-15T13:48:52.578Z,1.73
2018-05-15T13:51:21.297Z,1.53
2018-05-15T13:53:49.164Z,1.53
2018-05-15T13:56:16.986Z,1.80
2018-05-15T13:58:44.985Z,2.00
2018-05-15T14:01:12.895Z,2.30
2018-05-15T14:03:40.744Z,1.33
2018-05-15T14:06:08.672Z,1.83
2018-05-15T14:08:38.761Z,2.30
2018-05-15T14:11:07.389Z,2.37
2018-05-15T14:13:35.325Z,2.90
2018-05-15T14:16:03.245Z,2.23
2018-05-15T14:18:31.134Z,2.10
2018-05-15T14:20:58.981Z,2.90
2018-05-15T14:23:26.850Z,3.03
2018-05-15T14:25:54.785Z,2.80
2018-05-15T14:28:23.392Z,2.93
2018-05-15T14:30:51.237Z,3.10
2018-05-15T14:33:19.111Z,2.30
2018-05-15T14:35:47.028Z,3.20
2018-05-15T14:38:14.996Z,3.10
2018-05-15T14:40:42.900Z,3.50
2018-05-15T14:43:20.669Z,2.80
2018-05-15T14:45:48.648Z,3.20
2018-05-15T14:48:16.515Z,2.53
2018-05-15T14:53:46.814Z,2.57
2018-05-15T14:56:14.718Z,3.40
2018-05-15T14:58:42.575Z,2.60
2018-05-15T15:01:10.429Z,3.80
2018-05-15T15:03:38.359Z,2.93
2018-05-15T15:06:06.308Z,3.47
2018-05-15T15:08:34.967Z,3.43
2018-05-15T15:11:02.859Z,3.40
2018-05-15T15:13:32.277Z,3.70
2018-05-15T15:16:00.896Z,4.20
2018-05-15T15:18:28.747Z,5.07
2018-05-15T15:20:56.622Z,4.20
2018-05-15T15:23:24.524Z,4.53
2018-05-15T15:25:52.376Z,5.30
2018-05-15T15:28:20.254Z,5.30
2018-05-15T15:30:48.077Z,7.70
2018-05-15T15:33:16.049Z,5.73
2018-05-15T15:35:43.904Z,5.57
2018-05-15T15:38:11.737Z,5.57
2018-05-15T15:40:39.570Z,5.50
2018-05-15T15:43:07.511Z,4.90
2018-05-15T15:45:35.432Z,5.07
2018-05-15T15:48:03.305Z,4.67
2018-05-15T15:50:31.189Z,4.77
2018-05-15T15:53:01.092Z,5.10
2018-05-15T15:55:29.054Z,4.97
2018-05-15T15:57:56.895Z,4.50
2018-05-15T16:00:24.833Z,4.43
2018-05-15T16:02:52.759Z,4.10
2018-05-15T16:05:21.417Z,3.43
2018-05-15T16:07:49.275Z,5.20
2018-05-15T16:10:17.124Z,3.70
2018-05-15T16:12:44.993Z,3.63
2018-05-15T16:15:12.874Z,3.43
2018-05-15T16:17:41.524Z,3.70
2018-05-15T16:20:09.407Z,3.67
2018-05-15T16:22:37.268Z,2.30
2018-05-15T16:25:05.179Z,2.70
2018-05-15T16:27:33.101Z,3.80
2018-05-15T16:30:01.025Z,2.50
2018-05-15T16:32:28.963Z,2.43
2018-05-15T16:34:56.886Z,2.30
2018-05-15T16:37:24.824Z,2.40
2018-05-15T16:39:52.741Z,2.47
2018-05-15T16:42:20.877Z,2.83
2018-05-15T16:44:48.773Z,2.57
2018-05-15T16:47:16.770Z,2.60
2018-05-15T16:49:44.632Z,2.63
2018-05-15T16:52:13.253Z,2.43
2018-05-15T16:54:41.155Z,2.10
2018-05-15T16:57:08.989Z,2.27
2018-05-15T16:59:36.863Z,2.50
2018-05-15T17:02:05.519Z,2.80
2018-05-15T17:04:33.453Z,2.50
2018-05-15T17:07:01.428Z,2.10
2018-05-15T17:09:29.351Z,2.73
2018-05-15T17:11:57.293Z,2.17
2018-05-15T17:14:26.390Z,2.00
2018-05-15T17:16:54.711Z,2.90
2018-05-15T17:19:23.400Z,2.37
2018-05-15T17:21:51.405Z,2.40
2018-05-15T17:24:19.234Z,2.50
2018-05-15T17:26:47.161Z,2.77
2018-05-15T17:29:15.044Z,3.10
2018-05-15T17:31:42.888Z,2.03
2018-05-15T17:34:10.757Z,2.20
2018-05-15T17:36:38.680Z,2.33
2018-05-15T17:39:06.600Z,2.47
2018-05-15T17:41:34.530Z,2.40
2018-05-15T17:44:02.465Z,2.87
2018-05-15T17:46:31.149Z,2.63
2018-05-15T17:48:59.801Z,2.63
2018-05-15T17:51:27.696Z,2.40
2018-05-15T17:53:56.331Z,2.60
2018-05-15T17:56:24.220Z,2.80
2018-05-15T17:58:52.082Z,3.10
2018-05-15T18:01:20.001Z,2.40
2018-05-15T18:03:47.922Z,3.03
2018-05-15T18:06:15.795Z,2.37
2018-05-15T18:08:43.728Z,2.23
2018-05-15T18:11:12.349Z,2.30
2018-05-15T18:13:40.217Z,1.97
2018-05-15T18:16:08.125Z,2.10
2018-05-15T18:18:36.036Z,1.97
2018-05-15T18:21:03.889Z,2.30
2018-05-15T18:23:31.764Z,2.10
2018-05-15T18:25:59.681Z,2.10
2018-05-15T18:28:28.374Z,2.33
2018-05-15T18:30:56.232Z,2.23
2018-05-15T18:33:24.848Z,2.57
2018-05-15T18:35:52.704Z,3.03
2018-05-15T18:38:20.672Z,2.10
2018-05-15T18:40:48.607Z,1.93
2018-05-15T18:43:17.272Z,2.73
2018-05-15T18:45:45.165Z,2.60
2018-05-15T18:48:13.820Z,2.17
2018-05-15T18:50:41.796Z,2.10
2018-05-15T18:53:09.873Z,2.00
2018-05-15T18:55:37.728Z,2.20
2018-05-15T18:58:05.874Z,2.10
2018-05-15T19:00:33.753Z,2.30
2018-05-15T19:03:01.749Z,1.70
2018-05-15T19:05:29.577Z,2.07
2018-05-15T19:07:57.565Z,1.97
2018-05-15T19:10:31.208Z,1.90
2018-05-15T19:13:00.685Z,2.70
2018-05-15T19:15:28.568Z,2.37
2018-05-15T19:17:57.208Z,2.10
2018-05-15T19:20:25.193Z,2.20
2018-05-15T19:22:53.196Z,2.67
2018-05-15T19:25:21.913Z,3.70
2018-05-15T19:27:49.847Z,2.77
2018-05-15T19:30:18.516Z,2.57
2018-05-15T19:32:46.435Z,2.20
2018-05-15T19:35:19.928Z,1.90
2018-05-15T19:37:47.861Z,2.10
2018-05-15T19:40:17.025Z,2.10
2018-05-15T19:42:44.962Z,1.90
2018-05-15T19:45:12.908Z,2.70
2018-05-15T19:47:41.492Z,2.13
2018-05-15T19:50:10.128Z,2.23
2018-05-15T19:52:38.049Z,2.10
2018-05-15T19:55:07.505Z,2.40
2018-05-15T19:57:35.362Z,2.27
2018-05-15T20:00:03.372Z,2.43
2018-05-15T20:02:32.259Z,1.90
2018-05-15T20:05:00.887Z,1.70
2018-05-15T20:07:28.759Z,2.30
2018-05-15T20:09:56.648Z,2.67
2018-05-15T20:12:24.570Z,1.70
2018-05-15T20:14:52.489Z,2.63
2018-05-15T20:17:20.374Z,2.70
2018-05-15T20:19:48.233Z,1.90
2018-05-15T20:22:16.119Z,1.83
2018-05-15T20:24:44.837Z,2.23
2018-05-15T20:27:12.781Z,3.00
2018-05-15T20:29:41.421Z,2.50
2018-05-15T20:32:09.366Z,2.27
2018-05-15T20:34:37.301Z,2.40
2018-05-15T20:37:05.925Z,1.90
2018-05-15T20:39:33.776Z,2.50
2018-05-15T20:42:01.713Z,2.70
2018-05-15T20:44:29.649Z,2.10
2018-05-15T20:46:57.477Z,2.27
2018-05-15T20:49:25.414Z,2.03
2018-05-15T20:51:53.347Z,2.30
2018-05-15T20:54:21.218Z,2.67
2018-05-15T20:56:49.090Z,3.20
2018-05-15T20:59:17.011Z,2.50
2018-05-15T21:01:44.976Z,2.50
2018-05-15T21:04:12.881Z,6.60
2018-05-15T21:06:40.756Z,3.93
2018-05-15T21:09:08.641Z,2.70
2018-05-15T21:11:36.540Z,2.80
2018-05-15T21:14:04.431Z,2.57
2018-05-15T21:16:32.333Z,2.30
2018-05-15T21:19:00.162Z,2.50
2018-05-15T21:21:28.042Z,2.30
2018-05-15T21:23:56.013Z,2.53
2018-05-15T21:26:23.828Z,2.33
2018-05-15T21:28:53.038Z,2.90
2018-05-15T21:31:20.913Z,2.70
2018-05-15T21:33:48.781Z,2.80
2018-05-15T21:36:16.644Z,2.90
2018-05-15T21:38:44.518Z,2.67
2018-05-15T21:41:12.395Z,2.90
2018-05-15T21:43:40.228Z,2.83
2018-05-15T21:46:08.882Z,2.83
2018-05-15T21:48:36.745Z,3.50
2018-05-15T21:51:04.664Z,3.10
2018-05-15T21:53:32.547Z,2.87
2018-05-15T21:56:00.380Z,2.60
2018-05-15T21:58:29.024Z,2.77
2018-05-15T22:00:56.893Z,2.17
2018-05-15T22:03:24.761Z,2.77
2018-05-15T22:05:52.634Z,2.33
2018-05-15T22:08:20.464Z,2.60
2018-05-15T22:10:48.429Z,2.53
2018-05-15T22:13:28.166Z,2.57
2018-05-15T22:16:07.841Z,2.57
2018-05-15T22:18:47.446Z,2.40
2018-05-15T22:21:27.066Z,1.93
2018-05-15T22:23:55.176Z,2.20
2018-05-15T22:26:23.012Z,2.50
2018-05-15T22:28:51.643Z,2.23
2018-05-15T22:31:19.524Z,2.57
2018-05-15T22:33:47.410Z,2.03
2018-05-15T22:36:15.322Z,2.00
2018-05-15T22:38:43.187Z,2.20
2018-05-15T22:41:11.046Z,3.03
2018-05-15T22:43:38.936Z,2.13
2018-05-15T22:46:06.789Z,2.37
2018-05-15T22:48:34.668Z,2.53
2018-05-15T22:51:02.513Z,2.53
2018-05-15T22:53:30.406Z,2.13
2018-05-15T22:55:58.321Z,2.50
2018-05-15T22:58:26.938Z,2.10
2018-05-15T23:00:54.806Z,2.70
2018-05-15T23:03:22.717Z,2.30
2018-05-15T23:05:50.612Z,2.83
2018-05-15T23:08:18.501Z,3.07
2018-05-15T23:10:46.355Z,2.17
2018-05-15T23:13:14.194Z,2.27
2018-05-15T23:15:42.926Z,2.27
2018-05-15T23:18:12.386Z,2.07
2018-05-15T23:20:40.198Z,2.57
2018-05-15T23:23:08.054Z,2.40
2018-05-15T23:25:35.930Z,2.70
2018-05-15T23:28:03.777Z,2.60
2018-05-15T23:30:31.609Z,2.50
2018-05-15T23:32:59.505Z,2.53
2018-05-15T23:35:27.391Z,2.53
2018-05-15T23:37:55.260Z,2.60
2018-05-15T23:40:23.133Z,2.33
2018-05-15T23:42:51.037Z,3.00
2018-05-15T23:45:18.899Z,1.93
2018-05-15T23:47:46.724Z,2.10
2018-05-15T23:50:14.590Z,2.33
2018-05-15T23:52:42.529Z,2.33
2018-05-15T23:55:11.220Z,2.30
2018-05-15T23:57:39.090Z,3.20
